createdAt,value
2018-12-29T00:01:45.445Z,51.20
2018-12-29T00:04:14.121Z,51.20
2018-12-29T00:06:42.812Z,51.30
2018-12-29T00:09:11.622Z,51.40
2018-12-29T00:11:40.326Z,51.20
2018-12-29T00:14:09.100Z,51.30
2018-12-29T00:16:37.807Z,51.40
2018-12-29T00:19:06.498Z,51.70
2018-12-29T00:21:35.191Z,51.80
2018-12-29T00:24:03.890Z,51.40
2018-12-29T00:26:32.566Z,51.60
2018-12-29T00:29:01.409Z,51.50
2018-12-29T00:31:30.083Z,51.70
2018-12-29T00:33:58.773Z,51.90
2018-12-29T00:36:27.564Z,51.90
2018-12-29T00:38:56.231Z,51.80
2018-12-29T00:41:24.943Z,52.10
2018-12-29T00:43:53.625Z,51.80
2018-12-29T00:46:22.333Z,52.00
2018-12-29T00:48:51.028Z,52.00
2018-12-29T00:51:21.038Z,51.80
2018-12-29T00:53:49.758Z,51.50
2018-12-29T00:56:18.451Z,51.60
2018-12-29T00:58:47.163Z,51.60
2018-12-29T01:01:15.850Z,51.70
2018-12-29T01:03:44.555Z,51.60
2018-12-29T01:06:13.242Z,52.00
2018-12-29T01:08:41.923Z,51.80
2018-12-29T01:11:10.634Z,51.90
2018-12-29T01:13:39.348Z,52.10
2018-12-29T01:16:08.085Z,52.00
2018-12-29T01:18:36.980Z,52.00
2018-12-29T01:21:05.686Z,52.00
2018-12-29T01:23:34.376Z,52.10
2018-12-29T01:26:03.103Z,52.00
2018-12-29T01:28:31.837Z,51.60
2018-12-29T01:31:00.545Z,52.10
2018-12-29T01:33:29.362Z,52.10
2018-12-29T01:35:58.161Z,52.00
2018-12-29T01:38:26.831Z,52.10
2018-12-29T01:40:55.490Z,52.20
2018-12-29T01:43:24.367Z,52.40
2018-12-29T01:45:53.043Z,52.30
2018-12-29T01:48:21.725Z,52.50
2018-12-29T01:50:50.417Z,52.50
2018-12-29T01:53:19.274Z,52.50
2018-12-29T01:55:47.963Z,52.40
2018-12-29T01:58:16.675Z,52.70
2018-12-29T02:00:45.352Z,52.50
2018-12-29T02:03:14.055Z,53.40
2018-12-29T02:05:42.815Z,52.50
2018-12-29T02:08:11.521Z,52.50
2018-12-29T02:10:40.323Z,52.70
2018-12-29T02:13:09.034Z,52.40
2018-12-29T02:15:37.756Z,53.20
2018-12-29T02:18:06.431Z,52.70
2018-12-29T02:20:35.142Z,52.70
2018-12-29T02:23:03.820Z,52.80
2018-12-29T02:25:32.484Z,52.80
2018-12-29T02:28:01.194Z,52.70
2018-12-29T02:30:29.888Z,52.80
2018-12-29T02:32:58.604Z,52.70
2018-12-29T02:35:27.285Z,52.70
2018-12-29T02:37:56.057Z,52.70
2018-12-29T02:40:24.932Z,53.00
2018-12-29T02:42:53.717Z,53.40
2018-12-29T02:45:22.400Z,53.10
2018-12-29T02:47:51.100Z,53.00
2018-12-29T02:50:19.794Z,53.00
2018-12-29T02:52:48.499Z,52.90
2018-12-29T02:55:17.256Z,52.70
2018-12-29T02:57:45.925Z,52.90
2018-12-29T03:00:14.639Z,52.80
2018-12-29T03:02:43.306Z,53.10
2018-12-29T03:05:11.999Z,53.20
2018-12-29T03:07:40.687Z,53.30
2018-12-29T03:10:09.436Z,53.20
2018-12-29T03:12:38.122Z,53.00
2018-12-29T03:15:06.969Z,53.10
2018-12-29T03:17:35.670Z,53.30
2018-12-29T03:20:04.443Z,53.10
2018-12-29T03:22:33.148Z,53.00
2018-12-29T03:25:01.837Z,53.20
2018-12-29T03:27:30.537Z,53.10
2018-12-29T03:29:59.225Z,53.30
2018-12-29T03:32:27.926Z,53.20
2018-12-29T03:34:56.733Z,53.00
2018-12-29T03:37:25.524Z,53.90
2018-12-29T03:39:54.199Z,53.50
2018-12-29T03:42:23.107Z,53.70
2018-12-29T03:44:51.771Z,53.10
2018-12-29T03:47:20.450Z,53.30
2018-12-29T03:49:49.222Z,53.30
2018-12-29T03:52:17.912Z,53.50
2018-12-29T03:54:46.766Z,53.20
2018-12-29T03:57:15.424Z,53.30
2018-12-29T03:59:44.123Z,53.50
2018-12-29T04:02:12.816Z,53.50
2018-12-29T04:04:41.514Z,53.50
2018-12-29T04:07:10.214Z,53.50
2018-12-29T04:09:38.885Z,53.80
2018-12-29T04:12:13.373Z,53.60
2018-12-29T04:14:42.472Z,53.70
2018-12-29T04:17:11.182Z,53.60
2018-12-29T04:19:39.883Z,53.90
2018-12-29T04:22:08.653Z,53.70
2018-12-29T04:24:37.503Z,53.60
2018-12-29T04:27:06.162Z,53.70
2018-12-29T04:29:34.950Z,53.90
2018-12-29T04:32:03.756Z,53.70
2018-12-29T04:34:32.437Z,53.80
2018-12-29T04:37:01.132Z,53.90
2018-12-29T04:39:29.799Z,54.10
2018-12-29T04:41:58.494Z,54.20
2018-12-29T04:44:27.219Z,54.30
2018-12-29T04:46:55.896Z,54.40
2018-12-29T04:49:24.614Z,54.20
2018-12-29T04:51:53.348Z,54.90
2018-12-29T04:54:22.137Z,54.30
2018-12-29T04:56:50.799Z,54.20
2018-12-29T04:59:19.506Z,54.30
2018-12-29T05:01:48.175Z,54.50
2018-12-29T05:04:16.865Z,54.30
2018-12-29T05:06:45.675Z,54.40
2018-12-29T05:09:14.384Z,54.40
2018-12-29T05:11:43.057Z,54.50
2018-12-29T05:14:11.744Z,54.50
2018-12-29T05:16:40.443Z,54.50
2018-12-29T05:19:09.111Z,54.70
2018-12-29T05:21:37.820Z,54.80
2018-12-29T05:24:06.490Z,54.80
2018-12-29T05:26:35.197Z,54.80
2018-12-29T05:29:03.867Z,54.50
2018-12-29T05:31:32.567Z,54.60
2018-12-29T05:34:01.255Z,54.60
2018-12-29T05:36:29.915Z,54.70
2018-12-29T05:38:58.620Z,54.80
2018-12-29T05:41:27.286Z,55.00
2018-12-29T05:43:55.991Z,55.10
2018-12-29T05:46:24.664Z,54.90
2018-12-29T05:48:53.367Z,55.20
2018-12-29T05:51:22.046Z,55.10
2018-12-29T05:53:50.718Z,55.30
2018-12-29T05:56:19.394Z,55.10
2018-12-29T05:58:48.054Z,55.10
2018-12-29T06:01:16.761Z,54.90
2018-12-29T06:03:45.479Z,55.20
2018-12-29T06:06:14.175Z,55.40
2018-12-29T06:08:42.844Z,55.10
2018-12-29T06:11:11.559Z,55.10
2018-12-29T06:13:40.280Z,55.30
2018-12-29T06:16:09.163Z,55.40
2018-12-29T06:18:37.827Z,55.20
2018-12-29T06:21:06.541Z,55.40
2018-12-29T06:23:35.211Z,55.30
2018-12-29T06:26:03.923Z,55.30
2018-12-29T06:28:32.592Z,55.40
2018-12-29T06:31:01.506Z,55.30
2018-12-29T06:33:30.206Z,55.20
2018-12-29T06:35:58.882Z,55.30
2018-12-29T06:38:27.575Z,55.50
2018-12-29T06:40:56.227Z,55.40
2018-12-29T06:43:24.918Z,55.70
2018-12-29T06:45:53.584Z,55.70
2018-12-29T06:48:22.275Z,55.30
2018-12-29T06:50:50.969Z,55.60
2018-12-29T06:53:19.633Z,55.70
2018-12-29T06:55:48.303Z,55.50
2018-12-29T06:58:17.004Z,55.60
2018-12-29T07:00:45.686Z,56.30
2018-12-29T07:03:14.357Z,55.50
2018-12-29T07:05:43.160Z,55.80
2018-12-29T07:08:11.874Z,55.90
2018-12-29T07:10:40.619Z,55.80
2018-12-29T07:13:09.334Z,55.70
2018-12-29T07:15:38.054Z,55.60
2018-12-29T07:18:06.739Z,55.90
2018-12-29T07:20:35.436Z,56.30
2018-12-29T07:23:04.117Z,56.30
2018-12-29T07:25:32.856Z,56.00
2018-12-29T07:28:01.614Z,56.20
2018-12-29T07:30:30.336Z,56.40
2018-12-29T07:32:59.015Z,56.30
2018-12-29T07:35:27.798Z,56.10
2018-12-29T07:37:56.674Z,56.10
2018-12-29T07:40:25.324Z,56.40
2018-12-29T07:42:54.336Z,56.20
2018-12-29T07:45:24.019Z,56.50
2018-12-29T07:47:52.722Z,56.20
2018-12-29T07:50:21.415Z,56.40
2018-12-29T07:52:50.104Z,56.50
2018-12-29T07:55:18.796Z,56.50
2018-12-29T07:57:47.586Z,56.30
2018-12-29T08:00:16.272Z,57.00
2018-12-29T08:02:45.087Z,56.50
2018-12-29T08:05:13.773Z,56.30
2018-12-29T08:07:42.463Z,56.40
2018-12-29T08:10:11.261Z,56.80
2018-12-29T08:12:39.936Z,56.70
2018-12-29T08:15:08.632Z,56.80
2018-12-29T08:17:37.320Z,56.70
2018-12-29T08:20:06.506Z,56.70
2018-12-29T08:22:35.204Z,56.60
2018-12-29T08:25:04.386Z,56.70
2018-12-29T08:27:33.084Z,56.50
2018-12-29T08:30:01.758Z,56.60
2018-12-29T08:32:30.481Z,56.70
2018-12-29T08:34:59.251Z,56.60
2018-12-29T08:37:27.939Z,56.30
2018-12-29T08:39:56.631Z,56.80
2018-12-29T08:42:25.291Z,56.90
2018-12-29T08:44:54.009Z,56.80
2018-12-29T08:47:22.710Z,56.90
2018-12-29T08:49:51.409Z,56.80
2018-12-29T08:52:20.087Z,56.90
2018-12-29T08:54:48.895Z,57.00
2018-12-29T08:57:17.586Z,57.10
2018-12-29T08:59:46.301Z,56.70
2018-12-29T09:02:14.981Z,56.90
2018-12-29T09:04:43.668Z,57.10
2018-12-29T09:07:12.352Z,57.10
2018-12-29T09:09:41.010Z,57.20
2018-12-29T09:12:09.715Z,57.00
2018-12-29T09:14:38.411Z,57.00
2018-12-29T09:17:12.054Z,57.10
2018-12-29T09:19:37.519Z,57.40
2018-12-29T09:22:06.213Z,57.50
2018-12-29T09:24:35.010Z,57.10
2018-12-29T09:27:03.718Z,57.30
2018-12-29T09:29:32.404Z,57.40
2018-12-29T09:32:01.079Z,57.40
2018-12-29T09:34:29.775Z,57.70
2018-12-29T09:36:58.449Z,57.40
2018-12-29T09:39:27.160Z,57.50
2018-12-29T09:41:55.834Z,57.40
2018-12-29T09:44:24.528Z,56.50
2018-12-29T09:46:54.966Z,57.30
2018-12-29T09:49:23.648Z,57.20
2018-12-29T09:51:52.320Z,57.20
2018-12-29T09:54:20.987Z,57.20
2018-12-29T09:56:49.956Z,57.30
2018-12-29T09:59:18.643Z,57.70
2018-12-29T10:01:47.327Z,57.70
2018-12-29T10:04:16.311Z,57.60
2018-12-29T10:06:44.993Z,57.80
2018-12-29T10:09:13.668Z,57.90
2018-12-29T10:11:42.399Z,57.90
2018-12-29T10:14:11.099Z,58.00
2018-12-29T10:16:39.859Z,58.30
2018-12-29T10:19:08.672Z,58.10
2018-12-29T10:21:37.355Z,58.30
2018-12-29T10:24:06.184Z,58.30
2018-12-29T10:26:35.206Z,58.50
2018-12-29T10:29:03.893Z,58.40
2018-12-29T10:31:32.565Z,58.50
2018-12-29T10:34:01.284Z,58.30
2018-12-29T10:36:29.951Z,58.30
2018-12-29T10:38:58.623Z,58.60
2018-12-29T10:41:27.306Z,58.30
2018-12-29T10:43:55.975Z,58.30
2018-12-29T10:46:24.661Z,58.10
2018-12-29T10:48:53.364Z,58.20
2018-12-29T10:51:22.053Z,58.80
2018-12-29T10:53:50.738Z,58.40
2018-12-29T10:56:19.640Z,58.40
2018-12-29T10:58:48.331Z,58.50
2018-12-29T11:01:17.009Z,58.40
2018-12-29T11:03:45.927Z,58.60
2018-12-29T11:06:14.592Z,58.40
2018-12-29T11:08:43.405Z,58.30
2018-12-29T11:11:12.178Z,58.50
2018-12-29T11:13:40.881Z,58.50
2018-12-29T11:16:09.752Z,58.30
2018-12-29T11:18:38.442Z,58.50
2018-12-29T11:21:07.129Z,58.50
2018-12-29T11:23:35.784Z,58.30
2018-12-29T11:26:04.755Z,58.40
2018-12-29T11:28:33.411Z,58.40
2018-12-29T11:31:02.101Z,58.50
2018-12-29T11:33:30.858Z,58.40
2018-12-29T11:35:59.587Z,58.50
2018-12-29T11:38:28.275Z,58.60
2018-12-29T11:40:57.290Z,58.60
2018-12-29T11:43:25.961Z,58.10
2018-12-29T11:45:54.627Z,58.60
2018-12-29T11:48:23.410Z,58.40
2018-12-29T11:50:52.166Z,58.30
2018-12-29T11:53:20.868Z,58.30
2018-12-29T11:55:49.656Z,57.40
2018-12-29T11:58:18.332Z,58.10
2018-12-29T12:00:46.995Z,58.00
2018-12-29T12:03:15.908Z,58.40
2018-12-29T12:05:44.666Z,58.30
2018-12-29T12:08:13.331Z,58.30
2018-12-29T12:10:42.176Z,57.50
2018-12-29T12:13:12.317Z,58.20
2018-12-29T12:15:41.088Z,58.20
2018-12-29T12:18:09.802Z,58.20
2018-12-29T12:20:38.543Z,57.90
2018-12-29T12:23:07.234Z,58.30
2018-12-29T12:25:36.015Z,58.20
2018-12-29T12:28:05.267Z,58.10
2018-12-29T12:30:34.021Z,58.20
2018-12-29T12:33:02.700Z,58.10
2018-12-29T12:35:31.455Z,58.10
2018-12-29T12:38:00.414Z,58.00
2018-12-29T12:40:29.330Z,58.00
2018-12-29T12:42:58.022Z,58.00
2018-12-29T12:45:26.715Z,58.40
2018-12-29T12:47:55.609Z,58.30
2018-12-29T12:50:24.298Z,57.60
2018-12-29T12:52:53.164Z,58.20
2018-12-29T12:55:21.907Z,58.40
2018-12-29T12:57:50.619Z,58.30
2018-12-29T13:00:19.637Z,58.10
2018-12-29T13:02:48.487Z,57.20
2018-12-29T13:05:17.201Z,58.00
2018-12-29T13:07:45.876Z,58.10
2018-12-29T13:10:14.667Z,57.60
2018-12-29T13:12:43.338Z,58.00
2018-12-29T13:15:12.093Z,58.10
2018-12-29T13:17:40.895Z,57.20
2018-12-29T13:20:09.577Z,57.40
2018-12-29T13:22:38.312Z,58.00
2018-12-29T13:25:09.315Z,57.10
2018-12-29T13:27:38.016Z,57.10
2018-12-29T13:30:06.803Z,57.10
2018-12-29T13:32:35.507Z,58.80
2018-12-29T13:35:04.631Z,57.80
2018-12-29T13:37:33.427Z,57.00
2018-12-29T13:40:02.167Z,57.10
2018-12-29T13:42:30.859Z,56.20
2018-12-29T13:45:01.061Z,56.50
2018-12-29T13:47:29.996Z,56.70
2018-12-29T13:49:58.677Z,56.60
2018-12-29T13:52:27.397Z,56.20
2018-12-29T13:54:56.079Z,56.00
2018-12-29T13:57:24.750Z,56.40
2018-12-29T13:59:53.472Z,56.50
2018-12-29T14:02:22.155Z,56.60
2018-12-29T14:04:51.877Z,57.60
2018-12-29T14:07:20.642Z,56.70
2018-12-29T14:09:49.346Z,56.70
2018-12-29T14:12:18.019Z,57.50
2018-12-29T14:14:46.725Z,56.70
2018-12-29T14:17:15.452Z,55.90
2018-12-29T14:19:44.713Z,56.30
2018-12-29T14:22:13.569Z,56.40
2018-12-29T14:24:42.356Z,57.20
2018-12-29T14:27:11.113Z,57.20
2018-12-29T14:29:39.875Z,57.30
2018-12-29T14:32:08.638Z,57.20
2018-12-29T14:34:37.784Z,56.50
2018-12-29T14:37:08.461Z,57.40
2018-12-29T14:39:37.171Z,57.50
2018-12-29T14:42:05.860Z,57.50
2018-12-29T14:44:34.579Z,56.70
2018-12-29T14:49:45.144Z,57.50
2018-12-29T14:52:13.919Z,57.80
2018-12-29T14:54:42.690Z,57.50
2018-12-29T14:57:11.422Z,56.70
2018-12-29T14:59:40.128Z,57.60
2018-12-29T15:02:08.855Z,57.60
2018-12-29T15:04:37.552Z,56.80
2018-12-29T15:07:06.296Z,57.50
2018-12-29T15:09:35.035Z,57.90
2018-12-29T15:12:03.795Z,58.50
2018-12-29T15:14:32.585Z,58.00
2018-12-29T15:17:01.333Z,58.10
2018-12-29T15:19:30.064Z,58.20
2018-12-29T15:21:58.827Z,58.30
2018-12-29T15:24:27.573Z,57.80
2018-12-29T15:26:56.661Z,58.50
2018-12-29T15:29:25.372Z,57.40
2018-12-29T15:31:54.099Z,58.60
2018-12-29T15:34:22.853Z,57.70
2018-12-29T15:36:51.602Z,58.40
2018-12-29T15:39:20.712Z,57.80
2018-12-29T15:41:49.491Z,58.80
2018-12-29T15:44:18.162Z,57.50
2018-12-29T15:46:47.026Z,58.80
2018-12-29T15:49:15.724Z,57.90
2018-12-29T15:51:44.512Z,57.90
2018-12-29T15:54:13.215Z,59.50
2018-12-29T15:56:42.006Z,58.20
2018-12-29T15:59:10.769Z,59.10
2018-12-29T16:01:39.877Z,59.20
2018-12-29T16:04:08.774Z,59.40
2018-12-29T16:06:37.554Z,58.70
2018-12-29T16:09:07.135Z,59.60
2018-12-29T16:11:36.213Z,59.90
2018-12-29T16:14:04.978Z,59.60
2018-12-29T16:16:33.749Z,59.20
2018-12-29T16:19:02.502Z,59.70
2018-12-29T16:21:31.329Z,59.40
2018-12-29T16:24:00.002Z,59.90
2018-12-29T16:26:28.772Z,60.00
2018-12-29T16:28:57.529Z,59.80
2018-12-29T16:31:26.347Z,58.80
2018-12-29T16:33:55.079Z,60.10
2018-12-29T16:36:23.780Z,59.10
2018-12-29T16:38:52.475Z,59.90
2018-12-29T16:41:21.198Z,59.80
2018-12-29T16:43:50.335Z,60.30
2018-12-29T16:46:19.038Z,60.10
2018-12-29T16:48:47.802Z,60.40
2018-12-29T16:51:16.621Z,60.20
2018-12-29T16:53:45.607Z,60.50
2018-12-29T16:56:14.344Z,60.80
2018-12-29T16:58:43.067Z,60.70
2018-12-29T17:01:11.832Z,60.60
2018-12-29T17:03:40.998Z,60.30
2018-12-29T17:06:09.763Z,60.60
2018-12-29T17:08:38.611Z,60.60
2018-12-29T17:11:07.379Z,60.60
2018-12-29T17:13:36.563Z,60.80
2018-12-29T17:16:05.314Z,60.60
2018-12-29T17:18:34.128Z,60.80
2018-12-29T17:21:03.180Z,60.90
2018-12-29T17:23:31.843Z,60.80
2018-12-29T17:26:00.609Z,61.30
2018-12-29T17:28:29.685Z,60.90
2018-12-29T17:30:58.486Z,60.80
2018-12-29T17:33:27.180Z,60.90
2018-12-29T17:35:55.983Z,60.90
2018-12-29T17:38:24.747Z,61.10
2018-12-29T17:40:53.600Z,61.10
2018-12-29T17:43:22.342Z,61.40
2018-12-29T17:45:51.098Z,59.90
2018-12-29T17:48:19.876Z,60.80
2018-12-29T17:50:48.592Z,60.20
2018-12-29T17:53:17.443Z,60.20
2018-12-29T17:55:46.314Z,60.00
2018-12-29T17:58:15.228Z,60.10
2018-12-29T18:00:43.928Z,60.70
2018-12-29T18:03:13.591Z,60.00
2018-12-29T18:05:42.377Z,59.90
2018-12-29T18:08:11.196Z,60.00
2018-12-29T18:10:39.995Z,61.10
2018-12-29T18:13:08.684Z,60.40
2018-12-29T18:15:37.501Z,61.10
2018-12-29T18:18:06.240Z,60.20
2018-12-29T18:20:35.360Z,60.60
2018-12-29T18:23:04.179Z,60.30
2018-12-29T18:25:32.940Z,60.40
2018-12-29T18:28:01.748Z,60.30
2018-12-29T18:30:30.755Z,59.80
2018-12-29T18:32:59.537Z,60.20
2018-12-29T18:35:28.291Z,60.20
2018-12-29T18:37:57.012Z,60.50
2018-12-29T18:40:25.705Z,60.10
2018-12-29T18:42:54.427Z,60.70
2018-12-29T18:45:23.279Z,60.70
2018-12-29T18:47:52.083Z,60.80
2018-12-29T18:50:20.774Z,60.60
2018-12-29T18:52:49.744Z,60.70
2018-12-29T18:55:18.572Z,61.10
2018-12-29T18:57:47.661Z,61.10
2018-12-29T19:00:16.561Z,61.30
2018-12-29T19:03:04.614Z,61.00
2018-12-29T19:05:33.445Z,60.80
2018-12-29T19:08:02.200Z,60.90
2018-12-29T19:10:30.982Z,61.20
2018-12-29T19:12:59.989Z,60.40
2018-12-29T19:15:28.969Z,60.60
2018-12-29T19:17:58.138Z,61.20
2018-12-29T19:20:27.386Z,61.20
2018-12-29T19:22:56.285Z,61.20
2018-12-29T19:25:25.081Z,61.00
2018-12-29T19:27:53.867Z,61.60
2018-12-29T19:30:23.285Z,61.50
2018-12-29T19:32:53.828Z,61.00
2018-12-29T19:35:22.510Z,61.70
2018-12-29T19:37:51.407Z,61.70
2018-12-29T19:40:20.177Z,62.00
2018-12-29T19:42:49.168Z,61.70
2018-12-29T19:45:17.961Z,61.40
2018-12-29T19:47:47.075Z,61.20
2018-12-29T19:50:17.841Z,61.00
2018-12-29T19:52:46.657Z,61.70
2018-12-29T19:55:15.479Z,61.50
2018-12-29T19:57:44.259Z,61.70
2018-12-29T20:00:12.971Z,61.50
2018-12-29T20:02:41.968Z,61.30
2018-12-29T20:05:11.122Z,61.30
2018-12-29T20:07:39.847Z,62.00
2018-12-29T20:10:08.650Z,61.90
2018-12-29T20:12:37.595Z,61.60
2018-12-29T20:15:06.760Z,61.60
2018-12-29T20:17:36.036Z,61.40
2018-12-29T20:20:05.933Z,61.10
2018-12-29T20:22:34.677Z,61.00
2018-12-29T20:25:03.419Z,61.10
2018-12-29T20:27:32.195Z,61.20
2018-12-29T20:30:01.296Z,62.00
2018-12-29T20:32:30.034Z,61.20
2018-12-29T20:34:58.795Z,61.80
2018-12-29T20:37:27.530Z,61.70
2018-12-29T20:39:56.222Z,61.80
2018-12-29T20:42:25.288Z,61.90
2018-12-29T20:44:53.980Z,61.30
2018-12-29T20:47:22.809Z,61.30
2018-12-29T20:49:51.600Z,61.20
2018-12-29T20:52:20.287Z,61.00
2018-12-29T20:54:49.014Z,60.80
2018-12-29T20:57:17.872Z,60.70
2018-12-29T20:59:46.684Z,60.80
2018-12-29T21:02:15.443Z,60.20
2018-12-29T21:04:44.267Z,60.00
2018-12-29T21:07:13.077Z,59.90
2018-12-29T21:09:42.223Z,59.20
2018-12-29T21:12:11.074Z,58.30
2018-12-29T21:14:39.831Z,58.60
2018-12-29T21:17:08.633Z,58.00
2018-12-29T21:19:37.400Z,57.50
2018-12-29T21:22:07.477Z,58.30
2018-12-29T21:24:36.358Z,58.30
2018-12-29T21:27:08.246Z,58.60
2018-12-29T21:29:37.131Z,59.00
2018-12-29T21:32:05.916Z,59.10
2018-12-29T21:34:34.889Z,58.90
2018-12-29T21:37:03.853Z,59.30
2018-12-29T21:39:32.751Z,59.10
2018-12-29T21:42:01.882Z,58.90
2018-12-29T21:44:30.598Z,58.60
2018-12-29T21:46:59.377Z,58.50
2018-12-29T21:49:28.532Z,57.40
2018-12-29T21:51:57.427Z,57.80
2018-12-29T21:54:26.208Z,57.70
2018-12-29T21:56:55.061Z,57.50
2018-12-29T21:59:23.822Z,57.50
2018-12-29T22:01:52.602Z,57.30
2018-12-29T22:04:21.319Z,56.80
2018-12-29T22:06:50.203Z,56.10
2018-12-29T22:09:19.136Z,54.70
2018-12-29T22:11:47.905Z,54.30
2018-12-29T22:14:16.617Z,54.10
2018-12-29T22:16:45.810Z,54.00
2018-12-29T22:19:14.544Z,53.60
2018-12-29T22:21:43.267Z,53.40
2018-12-29T22:24:12.190Z,53.00
2018-12-29T22:26:40.927Z,53.40
2018-12-29T22:29:09.670Z,53.70
2018-12-29T22:31:38.450Z,53.30
2018-12-29T22:34:07.194Z,53.60
2018-12-29T22:36:35.898Z,53.50
2018-12-29T22:39:06.305Z,53.40
2018-12-29T22:41:35.071Z,53.70
2018-12-29T22:44:04.014Z,53.70
2018-12-29T22:46:32.935Z,53.60
2018-12-29T22:49:01.735Z,53.50
2018-12-29T22:51:30.503Z,53.50
2018-12-29T22:53:59.210Z,53.30
2018-12-29T22:56:28.272Z,53.50
2018-12-29T22:58:57.053Z,53.50
2018-12-29T23:01:25.872Z,53.60
2018-12-29T23:03:56.017Z,53.70
2018-12-29T23:06:24.765Z,53.70
2018-12-29T23:08:53.494Z,53.90
2018-12-29T23:11:22.463Z,53.60
2018-12-29T23:13:51.206Z,54.00
2018-12-29T23:16:20.109Z,53.80
2018-12-29T23:18:49.015Z,53.70
2018-12-29T23:21:17.836Z,53.40
2018-12-29T23:23:46.637Z,54.10
2018-12-29T23:26:15.398Z,54.10
2018-12-29T23:28:44.255Z,54.00
2018-12-29T23:31:13.023Z,53.70
2018-12-29T23:33:41.787Z,53.90
2018-12-29T23:36:10.776Z,53.90
2018-12-29T23:38:39.526Z,53.70
2018-12-29T23:41:08.304Z,53.80
2018-12-29T23:43:37.405Z,54.10
2018-12-29T23:46:06.147Z,53.90
2018-12-29T23:48:34.907Z,54.10
2018-12-29T23:51:05.610Z,53.80
2018-12-29T23:53:34.111Z,54.00
2018-12-29T23:56:03.258Z,54.00
2018-12-29T23:58:32.323Z,54.10
